Time;durP1;ratioP1;P1;durP2;ratioP2;P2;SDS_P1;SDS_P2;PMS_P1;PMS_P2;Temp;Humidity;BMP_temperature;BMP_pressure;BME280_temperature;BME280_humidity;BME280_pressure;Samples;Min_cycle;Max_cycle;Signal;HPM_P1;HPM_P2
2022/02/17 00:00:06;;;;;;;;;;;10.00;99.90;;;;;;5095276;28;19920;-45
2022/02/17 00:02:32;;;;;;;;;;;10.20;99.90;;;;;;5095193;28;20383;-48
2022/02/17 00:04:58;;;;;;;;;;;10.20;99.90;;;;;;5094983;28;20014;-47
2022/02/17 00:07:23;;;;;;;;;;;10.30;99.90;;;;;;5095047;28;19920;-49
2022/02/17 00:09:49;;;;;;;;;;;10.30;99.90;;;;;;5095054;28;20327;-48
2022/02/17 00:12:14;;;;;;;;;;;10.30;99.90;;;;;;5093513;28;19927;-52
2022/02/17 00:14:40;;;;;;;;;;;10.20;99.90;;;;;;5094936;28;19919;-46
2022/02/17 00:17:05;;;;;;;;;;;10.30;99.90;;;;;;5094894;28;19919;-47
2022/02/17 00:19:31;;;;;;;;;;;10.30;99.90;;;;;;5094589;28;20313;-48
2022/02/17 00:21:56;;;;;;;;;;;10.20;99.90;;;;;;5094515;28;20361;-47
2022/02/17 00:24:22;;;;;;;;;;;10.20;99.90;;;;;;5094762;28;20006;-47
2022/02/17 00:26:47;;;;;;;;;;;10.30;99.90;;;;;;5094860;28;20012;-50
2022/02/17 00:29:13;;;;;;;;;;;10.30;99.90;;;;;;5094693;28;19916;-48
2022/02/17 00:31:39;;;;;;;;;;;10.30;99.90;;;;;;5094584;28;19915;-47
2022/02/17 00:34:04;;;;;;;;;;;10.40;99.90;;;;;;5094449;28;20262;-50
2022/02/17 00:36:30;;;;;;;;;;;10.20;99.90;;;;;;5094689;28;19916;-49
2022/02/17 00:38:56;;;;;;;;;;;10.20;99.90;;;;;;5094432;28;20297;-48
2022/02/17 00:41:22;;;;;;;;;;;10.30;99.90;;;;;;5093059;28;20360;-48
2022/02/17 00:43:47;;;;;;;;;;;10.20;99.90;;;;;;5093379;28;19916;-50
2022/02/17 00:46:13;;;;;;;;;;;10.10;99.90;;;;;;5093643;28;20010;-49
2022/02/17 00:48:38;;;;;;;;;;;10.10;99.90;;;;;;5094418;28;20011;-49
2022/02/17 00:51:04;;;;;;;;;;;10.00;99.90;;;;;;5094357;28;20050;-46
2022/02/17 00:53:29;;;;;;;;;;;10.00;99.90;;;;;;5094111;28;19923;-51
2022/02/17 00:55:55;;;;;;;;;;;10.00;99.90;;;;;;5094256;28;19916;-48
2022/02/17 00:58:21;;;;;;;;;;;9.90;99.90;;;;;;5094123;28;20011;-51
2022/02/17 01:00:46;;;;;;;;;;;10.00;99.90;;;;;;5093849;28;19967;-48
2022/02/17 01:03:12;;;;;;;;;;;9.80;99.90;;;;;;5093942;28;19916;-52
2022/02/17 01:05:37;;;;;;;;;;;9.80;99.90;;;;;;5093890;28;20013;-47
2022/02/17 01:08:03;;;;;;;;;;;9.70;99.90;;;;;;5093874;28;20312;-52
2022/02/17 01:10:28;;;;;;;;;;;9.70;99.90;;;;;;5093728;28;19941;-49
2022/02/17 01:12:54;;;;;;;;;;;9.70;99.90;;;;;;5093863;28;19916;-46
2022/02/17 01:15:20;;;;;;;;;;;9.60;99.90;;;;;;5093767;28;20011;-51
2022/02/17 01:17:45;;;;;;;;;;;9.70;99.90;;;;;;5093665;28;19916;-51
2022/02/17 01:20:11;;;;;;;;;;;9.50;99.90;;;;;;5093474;28;19927;-51
2022/02/17 01:22:37;;;;;;;;;;;9.50;99.90;;;;;;5093389;28;19920;-50
2022/02/17 01:25:03;;;;;;;;;;;9.50;99.90;;;;;;5093904;28;19920;-50
2022/02/17 01:27:30;;;;;;;;;;;9.40;99.90;;;;;;5093962;28;20081;-51
2022/02/17 01:29:56;;;;;;;;;;;9.20;99.90;;;;;;5093535;28;19964;-48
2022/02/17 01:32:21;;;;;;;;;;;9.40;99.90;;;;;;5093425;28;20286;-49
2022/02/17 01:34:47;;;;;;;;;;;9.30;99.90;;;;;;5093404;28;20011;-49
2022/02/17 01:37:12;;;;;;;;;;;9.30;99.90;;;;;;5093509;28;19961;-51
2022/02/17 01:39:38;;;;;;;;;;;9.30;99.90;;;;;;5093275;28;19951;-52
2022/02/17 01:42:07;;;;;;;;;;;9.30;99.90;;;;;;5091942;28;20372;-48
2022/02/17 01:44:33;;;;;;;;;;;9.30;99.90;;;;;;5093292;28;19916;-49
2022/02/17 01:46:58;;;;;;;;;;;9.20;99.90;;;;;;5093086;28;20415;-50
2022/02/17 01:49:24;;;;;;;;;;;9.10;99.90;;;;;;5092830;28;20345;-51
2022/02/17 01:51:49;;;;;;;;;;;9.10;99.90;;;;;;5093174;28;19961;-48
2022/02/17 01:54:15;;;;;;;;;;;9.10;99.90;;;;;;5091719;28;19970;-50
2022/02/17 01:56:41;;;;;;;;;;;9.10;99.90;;;;;;5092682;28;19916;-51
2022/02/17 01:59:08;;;;;;;;;;;9.10;99.90;;;;;;5092239;28;20273;-51
2022/02/17 02:01:34;;;;;;;;;;;9.10;99.90;;;;;;5092747;28;19924;-51
2022/02/17 02:04:00;;;;;;;;;;;9.20;99.90;;;;;;5092676;28;19916;-47
2022/02/17 02:06:26;;;;;;;;;;;9.10;99.90;;;;;;5092936;28;19961;-50
2022/02/17 02:08:52;;;;;;;;;;;9.10;99.90;;;;;;5092911;28;20361;-52
2022/02/17 02:11:18;;;;;;;;;;;9.00;99.90;;;;;;5092778;28;20332;-51
2022/02/17 02:13:43;;;;;;;;;;;8.90;99.90;;;;;;5092749;28;20344;-50
2022/02/17 02:16:09;;;;;;;;;;;8.80;99.90;;;;;;5092657;28;20432;-49
2022/02/17 02:18:34;;;;;;;;;;;8.90;99.90;;;;;;5093073;28;20734;-52
2022/02/17 02:21:02;;;;;;;;;;;8.80;99.90;;;;;;5092632;28;20050;-51
2022/02/17 02:23:27;;;;;;;;;;;8.80;99.90;;;;;;5092686;28;19916;-50
2022/02/17 02:25:53;;;;;;;;;;;8.70;99.90;;;;;;5092409;28;20313;-49
2022/02/17 02:28:26;;;;;;;;;;;8.70;99.90;;;;;;5092498;28;19916;-48
2022/02/17 02:30:52;;;;;;;;;;;8.70;99.90;;;;;;5092346;28;20049;-51
2022/02/17 02:33:18;;;;;;;;;;;8.60;99.90;;;;;;5092747;28;20006;-51
2022/02/17 02:35:44;;;;;;;;;;;8.60;99.90;;;;;;5092447;28;20461;-50
2022/02/17 02:38:10;;;;;;;;;;;8.70;99.90;;;;;;5092482;28;19915;-50
2022/02/17 02:40:35;;;;;;;;;;;8.70;99.90;;;;;;5092288;28;20019;-50
2022/02/17 02:43:01;;;;;;;;;;;8.60;99.90;;;;;;5092201;28;20006;-48
2022/02/17 02:45:27;;;;;;;;;;;8.50;99.90;;;;;;5092285;28;19923;-52
2022/02/17 02:47:53;;;;;;;;;;;8.50;99.90;;;;;;5092584;28;19915;-49
2022/02/17 02:50:18;;;;;;;;;;;8.50;99.90;;;;;;5092322;28;20317;-51
2022/02/17 02:52:44;;;;;;;;;;;8.50;99.90;;;;;;5092337;28;20366;-49
2022/02/17 02:55:09;;;;;;;;;;;8.50;99.90;;;;;;5092333;28;19969;-48
2022/02/17 02:57:35;;;;;;;;;;;8.50;99.90;;;;;;5092055;28;19923;-53
2022/02/17 03:00:00;;;;;;;;;;;8.40;99.90;;;;;;5092541;28;20322;-52
2022/02/17 03:02:26;;;;;;;;;;;8.40;99.90;;;;;;5092044;28;19916;-53
2022/02/17 03:04:52;;;;;;;;;;;8.50;99.90;;;;;;5092006;28;19922;-51
2022/02/17 03:07:18;;;;;;;;;;;8.50;99.90;;;;;;5092319;28;19916;-51
2022/02/17 03:09:44;;;;;;;;;;;8.50;99.90;;;;;;5094570;28;19920;-51
2022/02/17 03:12:10;;;;;;;;;;;8.40;99.90;;;;;;5096023;28;19969;-50
2022/02/17 03:14:35;;;;;;;;;;;8.40;99.90;;;;;;5096274;28;19967;-52
2022/02/17 03:17:01;;;;;;;;;;;8.40;99.90;;;;;;5096386;28;19926;-52
2022/02/17 03:19:26;;;;;;;;;;;8.50;99.90;;;;;;5096184;28;19920;-53
2022/02/17 03:21:52;;;;;;;;;;;8.50;99.90;;;;;;5095718;28;19920;-52
2022/02/17 03:24:17;;;;;;;;;;;8.50;99.90;;;;;;5095903;28;19916;-53
2022/02/17 03:26:43;;;;;;;;;;;8.50;99.90;;;;;;5095815;28;19923;-52
2022/02/17 03:29:08;;;;;;;;;;;8.50;99.90;;;;;;5095774;28;19923;-51
2022/02/17 03:31:34;;;;;;;;;;;8.60;99.90;;;;;;5095781;28;19916;-49
2022/02/17 03:33:59;;;;;;;;;;;8.50;99.90;;;;;;5095792;28;19920;-51
2022/02/17 03:36:25;;;;;;;;;;;8.50;99.90;;;;;;5095820;28;20289;-52
2022/02/17 03:38:51;;;;;;;;;;;8.50;99.90;;;;;;5094637;28;19923;-54
2022/02/17 03:41:16;;;;;;;;;;;8.50;99.90;;;;;;5095376;28;19927;-51
2022/02/17 03:43:42;;;;;;;;;;;8.50;99.90;;;;;;5095488;28;19915;-50
2022/02/17 03:46:07;;;;;;;;;;;8.50;99.90;;;;;;5095615;28;19915;-51
2022/02/17 03:48:33;;;;;;;;;;;8.40;99.90;;;;;;5095622;28;19923;-53
2022/02/17 03:50:59;;;;;;;;;;;8.40;99.90;;;;;;5095606;28;20093;-53
2022/02/17 03:53:24;;;;;;;;;;;8.40;99.90;;;;;;5095494;28;19923;-52
2022/02/17 03:55:50;;;;;;;;;;;8.40;99.90;;;;;;5093888;28;19916;-50
2022/02/17 03:59:00;;;;;;;;;;;8.40;99.90;;;;;;5095199;28;20007;-49
2022/02/17 04:01:01;;;;;;;;;;;8.40;99.90;;;;;;5095132;28;19973;-52
2022/02/17 04:03:27;;;;;;;;;;;8.30;99.90;;;;;;5095215;28;20308;-52
2022/02/17 04:05:52;;;;;;;;;;;8.30;99.90;;;;;;5095012;28;20014;-49
2022/02/17 04:08:18;;;;;;;;;;;8.30;99.90;;;;;;5095110;28;19938;-53
2022/02/17 04:10:43;;;;;;;;;;;8.40;99.90;;;;;;5094971;28;19943;-52
2022/02/17 04:13:09;;;;;;;;;;;8.30;99.90;;;;;;5095101;28;20025;-51
2022/02/17 04:15:34;;;;;;;;;;;8.40;99.90;;;;;;5094893;28;19920;-52
2022/02/17 04:18:00;;;;;;;;;;;8.30;99.90;;;;;;5094987;28;19921;-52
2022/02/17 04:20:25;;;;;;;;;;;8.40;99.90;;;;;;5093688;28;20323;-54
2022/02/17 04:22:51;;;;;;;;;;;8.30;99.90;;;;;;5094597;28;19966;-51
2022/02/17 04:25:16;;;;;;;;;;;8.20;99.90;;;;;;5095418;28;19920;-52
2022/02/17 04:27:42;;;;;;;;;;;8.30;99.90;;;;;;5094710;28;20372;-52
2022/02/17 04:30:08;;;;;;;;;;;8.30;99.90;;;;;;5094783;28;20259;-50
2022/02/17 04:32:33;;;;;;;;;;;8.20;99.90;;;;;;5094679;28;20077;-52
2022/02/17 04:34:59;;;;;;;;;;;8.20;99.90;;;;;;5094585;28;19923;-52
2022/02/17 04:37:24;;;;;;;;;;;8.20;99.90;;;;;;5094562;28;19931;-50
2022/02/17 04:39:50;;;;;;;;;;;8.20;99.90;;;;;;5094450;28;19966;-53
2022/02/17 04:42:18;;;;;;;;;;;8.20;99.90;;;;;;5094296;28;19928;-49
2022/02/17 04:44:45;;;;;;;;;;;8.20;99.90;;;;;;5094263;28;20011;-53
2022/02/17 04:47:10;;;;;;;;;;;8.20;99.90;;;;;;5092956;28;19922;-49
2022/02/17 04:49:36;;;;;;;;;;;8.10;99.90;;;;;;5094279;28;19916;-52
2022/02/17 04:52:02;;;;;;;;;;;8.20;99.90;;;;;;5094282;28;19916;-52
2022/02/17 04:54:27;;;;;;;;;;;8.20;99.90;;;;;;5094070;28;19919;-50
2022/02/17 04:56:53;;;;;;;;;;;8.20;99.90;;;;;;5094472;28;19995;-50
2022/02/17 04:59:19;;;;;;;;;;;8.10;99.90;;;;;;5094251;28;19916;-50
2022/02/17 05:01:45;;;;;;;;;;;8.10;99.90;;;;;;5093887;28;20280;-53
2022/02/17 05:04:10;;;;;;;;;;;8.10;99.90;;;;;;5094033;28;19920;-50
2022/02/17 05:06:36;;;;;;;;;;;8.00;99.90;;;;;;5093996;28;19916;-53
2022/02/17 05:09:02;;;;;;;;;;;8.10;99.90;;;;;;5093915;28;19920;-54
2022/02/17 05:11:27;;;;;;;;;;;8.00;99.90;;;;;;5094327;28;20327;-51
2022/02/17 05:13:53;;;;;;;;;;;8.00;99.90;;;;;;5093991;28;19916;-51
2022/02/17 05:16:19;;;;;;;;;;;8.00;99.90;;;;;;5093803;28;19986;-53
2022/02/17 05:18:44;;;;;;;;;;;8.10;99.90;;;;;;5093634;28;19919;-48
2022/02/17 05:21:10;;;;;;;;;;;8.10;99.90;;;;;;5093127;28;20358;-53
2022/02/17 05:23:36;;;;;;;;;;;8.10;99.90;;;;;;5093613;28;19916;-53
2022/02/17 05:26:01;;;;;;;;;;;8.10;99.90;;;;;;5093749;28;19920;-53
2022/02/17 05:28:27;;;;;;;;;;;8.00;99.90;;;;;;5093534;28;20023;-50
2022/02/17 05:30:52;;;;;;;;;;;8.00;99.90;;;;;;5093498;28;19923;-53
2022/02/17 05:33:18;;;;;;;;;;;8.00;99.90;;;;;;5093344;28;19916;-52
2022/02/17 05:35:43;;;;;;;;;;;8.00;99.90;;;;;;5093357;28;19964;-51
2022/02/17 05:38:09;;;;;;;;;;;8.00;99.90;;;;;;5093186;28;20062;-53
2022/02/17 05:40:35;;;;;;;;;;;8.00;99.90;;;;;;5091785;28;19973;-53
2022/02/17 05:43:01;;;;;;;;;;;8.00;99.90;;;;;;5093492;28;19923;-53
2022/02/17 05:45:27;;;;;;;;;;;8.00;99.90;;;;;;5093437;28;20289;-52
2022/02/17 05:47:53;;;;;;;;;;;8.10;99.90;;;;;;5093526;28;19919;-50
2022/02/17 05:50:19;;;;;;;;;;;8.10;99.90;;;;;;5093069;28;19916;-53
2022/02/17 05:52:45;;;;;;;;;;;8.10;99.90;;;;;;5093125;28;19923;-50
2022/02/17 05:55:10;;;;;;;;;;;8.10;99.90;;;;;;5092983;28;19922;-50
2022/02/17 05:57:36;;;;;;;;;;;8.10;99.90;;;;;;5093105;28;20263;-51
2022/02/17 06:00:02;;;;;;;;;;;8.10;99.90;;;;;;5092929;28;20263;-48
2022/02/17 06:02:27;;;;;;;;;;;8.10;99.90;;;;;;5092996;28;20005;-51
2022/02/17 06:04:53;;;;;;;;;;;8.10;99.90;;;;;;5093210;28;20322;-50
2022/02/17 06:07:19;;;;;;;;;;;8.10;99.90;;;;;;5093004;28;19920;-52
2022/02/17 06:09:44;;;;;;;;;;;8.00;99.90;;;;;;5092698;28;20327;-52
2022/02/17 06:12:10;;;;;;;;;;;8.00;99.90;;;;;;5092889;28;19919;-52
2022/02/17 06:14:36;;;;;;;;;;;8.10;99.90;;;;;;5092962;28;19923;-52
2022/02/17 06:17:02;;;;;;;;;;;8.10;99.90;;;;;;5092761;28;19923;-53
2022/02/17 06:19:28;;;;;;;;;;;8.00;99.90;;;;;;5091171;28;19963;-52
2022/02/17 06:21:53;;;;;;;;;;;8.00;99.90;;;;;;5091134;28;20266;-51
2022/02/17 06:24:19;;;;;;;;;;;8.00;99.90;;;;;;5092621;28;19923;-54
2022/02/17 06:26:44;;;;;;;;;;;8.00;99.90;;;;;;5092873;28;19920;-52
2022/02/17 06:29:10;;;;;;;;;;;8.00;99.90;;;;;;5093007;28;20042;-54
2022/02/17 06:31:35;;;;;;;;;;;7.90;99.90;;;;;;5092563;28;20285;-50
2022/02/17 06:34:01;;;;;;;;;;;7.90;99.90;;;;;;5092498;28;20289;-54
2022/02/17 06:36:26;;;;;;;;;;;7.90;99.90;;;;;;5092421;28;19916;-53
2022/02/17 06:38:52;;;;;;;;;;;7.90;99.90;;;;;;5092344;28;19920;-53
2022/02/17 06:41:19;;;;;;;;;;;7.90;99.90;;;;;;5092506;28;20001;-52
2022/02/17 06:43:45;;;;;;;;;;;7.90;99.90;;;;;;5091940;28;19923;-52
2022/02/17 06:46:11;;;;;;;;;;;7.90;99.90;;;;;;5092440;28;19916;-50
2022/02/17 06:48:36;;;;;;;;;;;8.00;99.90;;;;;;5091200;28;20358;-53
2022/02/17 06:51:02;;;;;;;;;;;8.00;99.90;;;;;;5092356;28;19916;-53
2022/02/17 06:53:27;;;;;;;;;;;8.00;99.90;;;;;;5090900;28;20296;-53
2022/02/17 06:55:53;;;;;;;;;;;8.00;99.90;;;;;;5091162;28;19916;-52
2022/02/17 06:58:18;;;;;;;;;;;8.00;99.90;;;;;;5092365;28;20250;-52
2022/02/17 07:00:44;;;;;;;;;;;8.00;99.90;;;;;;5092228;28;19931;-52
2022/02/17 07:03:09;;;;;;;;;;;7.90;99.90;;;;;;5092143;28;20286;-52
2022/02/17 07:05:35;;;;;;;;;;;7.90;99.90;;;;;;5091208;28;20393;-52
2022/02/17 07:08:01;;;;;;;;;;;7.90;99.90;;;;;;5092192;28;19929;-51
2022/02/17 07:13:11;;;;;;;;;;;7.90;99.90;;;;;;5092134;28;20251;-51
2022/02/17 07:15:36;;;;;;;;;;;7.90;99.90;;;;;;5092031;28;19923;-51
2022/02/17 07:18:03;;;;;;;;;;;7.90;99.90;;;;;;5090786;28;19916;-51
2022/02/17 07:20:30;;;;;;;;;;;7.90;99.90;;;;;;5091823;28;20278;-50
2022/02/17 07:22:56;;;;;;;;;;;7.90;99.90;;;;;;5091817;28;19998;-49
2022/02/17 07:25:21;;;;;;;;;;;7.90;99.90;;;;;;5091750;28;19924;-49
2022/02/17 07:27:47;;;;;;;;;;;7.80;99.90;;;;;;5092121;28;19916;-50
2022/02/17 07:30:12;;;;;;;;;;;7.80;99.90;;;;;;5091968;28;20007;-52
2022/02/17 07:32:41;;;;;;;;;;;7.80;99.90;;;;;;5091828;28;20327;-51
2022/02/17 07:35:07;;;;;;;;;;;7.80;99.90;;;;;;5091527;28;20323;-52
2022/02/17 07:37:33;;;;;;;;;;;7.80;99.90;;;;;;5091980;28;19923;-51
2022/02/17 07:39:59;;;;;;;;;;;7.80;99.90;;;;;;5091930;28;19915;-52
2022/02/17 07:42:24;;;;;;;;;;;7.80;99.90;;;;;;5091620;28;19930;-50
2022/02/17 07:44:52;;;;;;;;;;;7.80;99.90;;;;;;5091807;28;20017;-52
2022/02/17 07:47:18;;;;;;;;;;;7.80;99.90;;;;;;5091664;28;19923;-52
2022/02/17 07:49:43;;;;;;;;;;;7.70;99.90;;;;;;5090369;28;20320;-49
2022/02/17 07:52:09;;;;;;;;;;;7.80;99.90;;;;;;5091949;28;19970;-54
2022/02/17 07:54:34;;;;;;;;;;;7.80;99.90;;;;;;5092019;28;20375;-52
2022/02/17 07:57:02;;;;;;;;;;;7.80;99.90;;;;;;5094133;28;19915;-49
2022/02/17 07:59:28;;;;;;;;;;;7.70;99.90;;;;;;5095685;28;19986;-51
2022/02/17 08:01:54;;;;;;;;;;;7.70;99.90;;;;;;5095160;28;19967;-51
2022/02/17 08:04:19;;;;;;;;;;;7.70;99.90;;;;;;5095472;28;19916;-52
2022/02/17 08:06:45;;;;;;;;;;;7.70;99.90;;;;;;5095261;28;20369;-52
2022/02/17 08:09:10;;;;;;;;;;;7.70;99.90;;;;;;5094944;28;19920;-52
2022/02/17 08:11:36;;;;;;;;;;;7.70;99.90;;;;;;5095143;28;19931;-54
2022/02/17 08:14:02;;;;;;;;;;;7.70;99.90;;;;;;5093067;28;20287;-53
2022/02/17 08:16:27;;;;;;;;;;;7.70;99.90;;;;;;5094926;28;20366;-51
2022/02/17 08:18:53;;;;;;;;;;;7.70;99.90;;;;;;5093512;28;19916;-49
2022/02/17 08:21:18;;;;;;;;;;;7.70;99.90;;;;;;5094786;28;19927;-51
2022/02/17 08:23:44;;;;;;;;;;;7.60;99.90;;;;;;5094929;28;19926;-50
2022/02/17 08:26:09;;;;;;;;;;;7.70;99.90;;;;;;5094988;28;20006;-53
2022/02/17 08:28:35;;;;;;;;;;;7.70;99.90;;;;;;5094622;28;19961;-53
2022/02/17 08:31:00;;;;;;;;;;;7.70;99.90;;;;;;5094572;28;19916;-50
2022/02/17 08:33:26;;;;;;;;;;;7.70;99.90;;;;;;5093423;28;19973;-48
2022/02/17 08:35:51;;;;;;;;;;;7.70;99.90;;;;;;5094950;28;20346;-53
2022/02/17 08:38:17;;;;;;;;;;;7.70;99.90;;;;;;5094479;28;19998;-52
2022/02/17 08:40:43;;;;;;;;;;;7.70;99.90;;;;;;5094396;28;19920;-49
2022/02/17 08:43:09;;;;;;;;;;;7.60;99.90;;;;;;5094406;28;19916;-51
2022/02/17 08:45:36;;;;;;;;;;;7.70;99.90;;;;;;5094238;28;19922;-51
2022/02/17 08:48:02;;;;;;;;;;;7.60;99.90;;;;;;5092929;28;19992;-48
2022/02/17 08:50:27;;;;;;;;;;;7.60;99.90;;;;;;5094139;28;19923;-49
2022/02/17 08:52:53;;;;;;;;;;;7.70;99.90;;;;;;5094267;28;20015;-50
2022/02/17 08:55:18;;;;;;;;;;;7.60;99.90;;;;;;5094400;28;19970;-53
2022/02/17 08:57:47;;;;;;;;;;;7.70;99.90;;;;;;5094095;28;19920;-50
2022/02/17 09:00:13;;;;;;;;;;;7.70;99.90;;;;;;5094126;28;19916;-51
2022/02/17 09:02:40;;;;;;;;;;;7.70;99.90;;;;;;5093940;28;20324;-50
2022/02/17 09:05:06;;;;;;;;;;;7.70;99.90;;;;;;5094035;28;19968;-48
2022/02/17 09:07:31;;;;;;;;;;;7.70;99.90;;;;;;5091272;28;19916;-50
2022/02/17 09:09:57;;;;;;;;;;;7.70;99.90;;;;;;5112989;28;20356;-51
2022/02/17 09:12:22;;;;;;;;;;;7.80;99.90;;;;;;5114330;28;20383;-53
2022/02/17 09:14:48;;;;;;;;;;;7.80;99.90;;;;;;5114164;28;19930;-51
2022/02/17 09:17:14;;;;;;;;;;;7.80;99.90;;;;;;5113982;28;19934;-50
2022/02/17 09:19:40;;;;;;;;;;;7.80;99.90;;;;;;5114158;28;19915;-50
2022/02/17 09:22:05;;;;;;;;;;;7.80;99.90;;;;;;5112589;28;20010;-53
2022/02/17 09:24:31;;;;;;;;;;;7.80;99.90;;;;;;5113983;28;19974;-53
2022/02/17 09:26:57;;;;;;;;;;;7.80;99.90;;;;;;5113790;28;20002;-47
2022/02/17 09:29:22;;;;;;;;;;;7.80;99.90;;;;;;5112988;28;20011;-48
2022/02/17 09:31:48;;;;;;;;;;;7.80;99.90;;;;;;5113599;28;19916;-51
2022/02/17 09:34:14;;;;;;;;;;;7.80;99.90;;;;;;5112344;28;19926;-51
2022/02/17 09:36:39;;;;;;;;;;;7.90;99.90;;;;;;5113802;28;19923;-52
2022/02/17 09:39:06;;;;;;;;;;;7.80;99.90;;;;;;5113541;28;19920;-49
2022/02/17 09:41:32;;;;;;;;;;;7.80;99.90;;;;;;5113510;28;19923;-48
2022/02/17 09:44:06;;;;;;;;;;;7.90;99.90;;;;;;5113397;28;20430;-51
2022/02/17 09:46:33;;;;;;;;;;;7.90;99.90;;;;;;5113845;28;20026;-52
2022/02/17 09:49:02;;;;;;;;;;;7.90;99.90;;;;;;5113349;28;20007;-51
2022/02/17 09:51:29;;;;;;;;;;;7.90;99.90;;;;;;5113346;28;19916;-50
2022/02/17 09:53:55;;;;;;;;;;;7.90;99.90;;;;;;5113376;28;19927;-51
2022/02/17 09:56:23;;;;;;;;;;;8.00;99.90;;;;;;5113312;28;19916;-51
2022/02/17 09:58:50;;;;;;;;;;;8.10;99.90;;;;;;5113452;28;20448;-50
2022/02/17 10:01:31;;;;;;;;;;;8.00;99.90;;;;;;5113576;28;20289;-50
2022/02/17 10:04:16;;;;;;;;;;;8.10;99.90;;;;;;5113020;28;20380;-49
2022/02/17 10:06:45;;;;;;;;;;;8.10;99.90;;;;;;5113184;28;19915;-52
2022/02/17 10:09:11;;;;;;;;;;;8.10;99.90;;;;;;5113162;28;19938;-49
2022/02/17 10:11:39;;;;;;;;;;;8.10;99.90;;;;;;5113194;28;19916;-49
2022/02/17 10:14:09;;;;;;;;;;;8.10;99.90;;;;;;5113071;28;19915;-52
2022/02/17 10:16:51;;;;;;;;;;;8.20;99.90;;;;;;5112922;28;19915;-48
2022/02/17 10:19:16;;;;;;;;;;;8.20;99.90;;;;;;5112282;28;20323;-51
2022/02/17 10:21:43;;;;;;;;;;;8.20;99.90;;;;;;5112661;28;19926;-48
2022/02/17 10:24:09;;;;;;;;;;;8.30;99.90;;;;;;5111670;28;19916;-51
2022/02/17 10:26:34;;;;;;;;;;;8.40;99.90;;;;;;5112837;28;20022;-48
2022/02/17 10:29:03;;;;;;;;;;;8.40;99.90;;;;;;5112812;28;19972;-52
2022/02/17 10:31:35;;;;;;;;;;;8.30;99.90;;;;;;5112797;28;19915;-48
2022/02/17 10:34:01;;;;;;;;;;;8.30;99.90;;;;;;5112873;28;19916;-48
2022/02/17 10:36:36;;;;;;;;;;;8.40;99.90;;;;;;5112636;28;20018;-51
2022/02/17 10:39:12;;;;;;;;;;;8.50;99.90;;;;;;5112674;28;19916;-52
2022/02/17 10:41:45;;;;;;;;;;;8.60;99.90;;;;;;5112700;28;19923;-49
2022/02/17 10:44:10;;;;;;;;;;;8.60;99.90;;;;;;5112756;28;19915;-48
2022/02/17 10:46:36;;;;;;;;;;;8.70;99.90;;;;;;5112521;28;19968;-52
2022/02/17 10:49:08;;;;;;;;;;;8.70;99.90;;;;;;5112811;28;19961;-51
2022/02/17 10:51:34;;;;;;;;;;;8.70;99.90;;;;;;5112779;28;19920;-48
2022/02/17 10:53:59;;;;;;;;;;;8.70;99.90;;;;;;5112588;28;19994;-49
2022/02/17 10:56:29;;;;;;;;;;;8.60;99.90;;;;;;5112459;28;19920;-49
2022/02/17 10:58:58;;;;;;;;;;;8.70;99.90;;;;;;5112577;28;19915;-51
2022/02/17 11:01:24;;;;;;;;;;;8.70;99.90;;;;;;5112460;28;19984;-51
2022/02/17 11:03:51;;;;;;;;;;;8.90;99.90;;;;;;5112668;28;19916;-49
2022/02/17 11:06:17;;;;;;;;;;;8.80;99.90;;;;;;5112529;28;19938;-49
2022/02/17 11:08:43;;;;;;;;;;;8.90;99.90;;;;;;5112626;28;20279;-49
2022/02/17 11:11:10;;;;;;;;;;;9.20;99.90;;;;;;5112525;28;19915;-50
2022/02/17 11:13:36;;;;;;;;;;;9.20;99.90;;;;;;5112335;28;19968;-46
2022/02/17 11:16:04;;;;;;;;;;;9.40;99.90;;;;;;5112272;28;19998;-48
2022/02/17 11:18:29;;;;;;;;;;;9.40;99.90;;;;;;5112392;28;19915;-50
2022/02/17 11:20:56;;;;;;;;;;;9.50;99.90;;;;;;5112334;28;20014;-46
2022/02/17 11:23:32;;;;;;;;;;;9.60;99.90;;;;;;5112096;28;20067;-51
2022/02/17 11:25:58;;;;;;;;;;;9.60;99.90;;;;;;5112478;28;19924;-51
2022/02/17 11:28:32;;;;;;;;;;;9.70;99.90;;;;;;5112304;28;20057;-50
2022/02/17 11:30:58;;;;;;;;;;;9.80;99.90;;;;;;5115206;28;19985;-51
2022/02/17 11:33:27;;;;;;;;;;;10.00;99.90;;;;;;5116212;28;19919;-49
2022/02/17 11:35:54;;;;;;;;;;;10.00;99.90;;;;;;5116251;28;19990;-51
2022/02/17 11:38:31;;;;;;;;;;;9.90;99.90;;;;;;5116064;28;20340;-48
2022/02/17 11:40:57;;;;;;;;;;;9.90;99.90;;;;;;5115942;28;19926;-47
2022/02/17 11:43:26;;;;;;;;;;;9.70;99.90;;;;;;5116183;27;19915;-46
2022/02/17 11:45:52;;;;;;;;;;;9.90;99.90;;;;;;5116117;28;19963;-48
2022/02/17 11:48:31;;;;;;;;;;;10.00;99.90;;;;;;5116281;28;19962;-46
2022/02/17 11:51:08;;;;;;;;;;;9.80;99.90;;;;;;5115642;28;19916;-50
2022/02/17 11:53:36;;;;;;;;;;;9.80;99.90;;;;;;5115698;28;20007;-51
2022/02/17 11:56:13;;;;;;;;;;;9.90;99.90;;;;;;5115670;28;19973;-47
2022/02/17 11:58:47;;;;;;;;;;;9.90;99.90;;;;;;5115660;28;19998;-46
2022/02/17 12:01:22;;;;;;;;;;;9.90;99.90;;;;;;5115621;28;19964;-47
2022/02/17 12:04:08;;;;;;;;;;;9.90;99.90;;;;;;5115750;28;20031;-50
2022/02/17 12:06:42;;;;;;;;;;;10.20;99.90;;;;;;5114361;28;19920;-50
2022/02/17 12:09:08;;;;;;;;;;;10.40;99.90;;;;;;5115653;27;19919;-47
2022/02/17 12:11:37;;;;;;;;;;;10.50;99.90;;;;;;5115652;28;20322;-49
2022/02/17 12:14:05;;;;;;;;;;;10.50;99.90;;;;;;5115201;28;20007;-61
2022/02/17 12:16:37;;;;;;;;;;;10.50;99.90;;;;;;5115533;28;19915;-63
2022/02/17 12:19:16;;;;;;;;;;;10.60;99.90;;;;;;5115503;28;19915;-61
2022/02/17 12:21:42;;;;;;;;;;;10.60;99.90;;;;;;5115118;28;19937;-62
2022/02/17 12:24:08;;;;;;;;;;;10.70;99.90;;;;;;5115054;28;19960;-62
2022/02/17 12:26:42;;;;;;;;;;;10.70;99.90;;;;;;5115122;28;19920;-61
2022/02/17 12:29:26;;;;;;;;;;;10.70;99.90;;;;;;5115257;28;19923;-63
2022/02/17 12:31:52;;;;;;;;;;;10.50;99.90;;;;;;5115060;28;19916;-62
2022/02/17 12:34:18;;;;;;;;;;;10.40;99.90;;;;;;5114990;28;19915;-62
2022/02/17 12:36:43;;;;;;;;;;;10.40;99.90;;;;;;5114941;28;20413;-62
2022/02/17 12:39:09;;;;;;;;;;;10.40;99.90;;;;;;5114996;28;19919;-62
2022/02/17 12:41:34;;;;;;;;;;;10.30;99.90;;;;;;5114457;28;20240;-63
2022/02/17 12:44:00;;;;;;;;;;;10.20;99.90;;;;;;5113416;28;19916;-63
2022/02/17 12:46:27;;;;;;;;;;;10.40;99.90;;;;;;5114864;28;19967;-62
2022/02/17 12:48:53;;;;;;;;;;;10.10;99.90;;;;;;5114789;28;19922;-62
2022/02/17 12:51:26;;;;;;;;;;;10.20;99.90;;;;;;5114581;28;19916;-62
2022/02/17 12:53:54;;;;;;;;;;;10.40;99.90;;;;;;5113598;28;20282;-62
2022/02/17 12:56:20;;;;;;;;;;;10.40;99.90;;;;;;5114637;28;20319;-62
2022/02/17 12:58:45;;;;;;;;;;;10.40;99.90;;;;;;5114662;28;20006;-63
2022/02/17 13:01:19;;;;;;;;;;;10.50;99.90;;;;;;5114747;28;19924;-62
2022/02/17 13:03:45;;;;;;;;;;;10.10;99.90;;;;;;5114604;28;19923;-46
2022/02/17 13:06:25;;;;;;;;;;;10.00;99.90;;;;;;5114439;28;20289;-49
2022/02/17 13:08:51;;;;;;;;;;;10.10;99.90;;;;;;5113146;28;19916;-45
2022/02/17 13:11:17;;;;;;;;;;;10.10;99.90;;;;;;5114203;28;20284;-47
2022/02/17 13:13:43;;;;;;;;;;;10.10;99.90;;;;;;5114427;27;20285;-62
2022/02/17 13:16:11;;;;;;;;;;;10.10;99.90;;;;;;5114211;28;19920;-62
2022/02/17 13:18:39;;;;;;;;;;;10.20;99.90;;;;;;5113989;28;19919;-61
2022/02/17 13:21:11;;;;;;;;;;;10.30;99.90;;;;;;5113869;28;20275;-47
2022/02/17 13:23:37;;;;;;;;;;;10.20;99.90;;;;;;5114198;28;19926;-47
2022/02/17 13:26:03;;;;;;;;;;;10.10;99.90;;;;;;5114315;28;19919;-51
2022/02/17 13:28:28;;;;;;;;;;;9.90;99.90;;;;;;5114268;28;19926;-51
2022/02/17 13:30:54;;;;;;;;;;;9.70;99.90;;;;;;5113998;28;19920;-51
2022/02/17 13:33:21;;;;;;;;;;;9.60;99.90;;;;;;5113713;28;20357;-49
2022/02/17 13:35:48;;;;;;;;;;;9.70;99.90;;;;;;5113803;28;19916;-50
2022/02/17 13:38:14;;;;;;;;;;;9.70;99.90;;;;;;5113874;28;20002;-48
2022/02/17 13:40:45;;;;;;;;;;;9.50;99.90;;;;;;5113820;28;19916;-49
2022/02/17 13:43:11;;;;;;;;;;;9.50;99.90;;;;;;5113919;28;19923;-51
2022/02/17 13:45:38;;;;;;;;;;;9.30;99.90;;;;;;5113802;28;19930;-47
2022/02/17 13:48:04;;;;;;;;;;;9.50;99.90;;;;;;5113632;28;20405;-50
2022/02/17 13:50:31;;;;;;;;;;;9.60;99.90;;;;;;5113679;28;19922;-47
2022/02/17 13:53:03;;;;;;;;;;;9.60;99.90;;;;;;5113630;28;19915;-50
2022/02/17 13:55:29;;;;;;;;;;;9.40;99.90;;;;;;5113691;28;19916;-51
2022/02/17 13:57:57;;;;;;;;;;;9.30;99.90;;;;;;5113473;28;19960;-50
2022/02/17 14:00:35;;;;;;;;;;;9.20;99.90;;;;;;5113120;28;19966;-50
2022/02/17 14:03:24;;;;;;;;;;;9.10;99.90;;;;;;5113541;28;19927;-48
2022/02/17 14:05:53;;;;;;;;;;;9.10;99.90;;;;;;5113417;28;19915;-49
2022/02/17 14:08:19;;;;;;;;;;;9.20;99.90;;;;;;5113178;28;19916;-49
2022/02/17 14:10:45;;;;;;;;;;;9.30;99.90;;;;;;5113582;28;19923;-52
2022/02/17 14:13:10;;;;;;;;;;;9.30;99.90;;;;;;5113013;28;20357;-47
2022/02/17 14:15:36;;;;;;;;;;;9.20;99.90;;;;;;5113207;28;19959;-47
2022/02/17 14:18:02;;;;;;;;;;;9.10;99.90;;;;;;5113259;28;20002;-48
2022/02/17 14:20:27;;;;;;;;;;;9.00;99.90;;;;;;5112961;28;19926;-48
2022/02/17 14:22:54;;;;;;;;;;;9.00;99.90;;;;;;5112741;28;19923;-51
2022/02/17 14:25:19;;;;;;;;;;;8.80;99.90;;;;;;5113304;28;19965;-51
2022/02/17 14:27:45;;;;;;;;;;;8.80;99.90;;;;;;5093017;28;20002;-52